sensor_id;sensor_type;location;lat;lon;timestamp;temperature;humidity
74359;DHT22;62792;46.236;6.040;2022-08-19T00:02:07;25.80;66.10
74359;DHT22;62792;46.236;6.040;2022-08-19T00:07:09;25.70;66.30
74359;DHT22;62792;46.236;6.040;2022-08-19T00:12:13;25.70;66.10
74359;DHT22;62792;46.236;6.040;2022-08-19T00:17:16;25.80;66.10
74359;DHT22;62792;46.236;6.040;2022-08-19T00:22:19;25.70;66.00
74359;DHT22;62792;46.236;6.040;2022-08-19T00:27:23;25.80;66.30
74359;DHT22;62792;46.236;6.040;2022-08-19T00:32:27;25.80;66.10
74359;DHT22;62792;46.236;6.040;2022-08-19T00:37:31;25.80;66.10
74359;DHT22;62792;46.236;6.040;2022-08-19T00:42:35;25.80;66.10
74359;DHT22;62792;46.236;6.040;2022-08-19T00:47:38;25.70;66.10
74359;DHT22;62792;46.236;6.040;2022-08-19T00:52:42;25.70;66.30
74359;DHT22;62792;46.236;6.040;2022-08-19T00:57:51;25.70;66.40
74359;DHT22;62792;46.236;6.040;2022-08-19T01:02:55;25.70;66.40
74359;DHT22;62792;46.236;6.040;2022-08-19T01:07:59;25.70;66.50
74359;DHT22;62792;46.236;6.040;2022-08-19T01:13:03;25.70;66.40
74359;DHT22;62792;46.236;6.040;2022-08-19T01:18:07;25.70;66.70
74359;DHT22;62792;46.236;6.040;2022-08-19T01:23:11;25.60;66.70
74359;DHT22;62792;46.236;6.040;2022-08-19T01:28:15;25.70;66.30
74359;DHT22;62792;46.236;6.040;2022-08-19T01:33:34;25.70;66.30
74359;DHT22;62792;46.236;6.040;2022-08-19T01:38:39;25.70;66.40
74359;DHT22;62792;46.236;6.040;2022-08-19T01:43:45;25.70;66.40
74359;DHT22;62792;46.236;6.040;2022-08-19T01:49:07;25.60;67.00
74359;DHT22;62792;46.236;6.040;2022-08-19T01:54:13;25.70;66.90
74359;DHT22;62792;46.236;6.040;2022-08-19T01:59:28;25.70;67.50
74359;DHT22;62792;46.236;6.040;2022-08-19T02:04:32;25.60;67.50
74359;DHT22;62792;46.236;6.040;2022-08-19T02:09:36;25.70;67.40
74359;DHT22;62792;46.236;6.040;2022-08-19T02:14:39;25.70;67.80
74359;DHT22;62792;46.236;6.040;2022-08-19T02:19:42;25.60;67.70
74359;DHT22;62792;46.236;6.040;2022-08-19T02:24:46;25.60;67.80
74359;DHT22;62792;46.236;6.040;2022-08-19T02:29:50;25.60;68.20
74359;DHT22;62792;46.236;6.040;2022-08-19T02:34:53;25.60;68.30
74359;DHT22;62792;46.236;6.040;2022-08-19T02:39:57;25.50;68.00
74359;DHT22;62792;46.236;6.040;2022-08-19T02:45:00;25.60;68.20
74359;DHT22;62792;46.236;6.040;2022-08-19T02:50:03;25.60;68.00
74359;DHT22;62792;46.236;6.040;2022-08-19T02:55:08;25.60;68.00
74359;DHT22;62792;46.236;6.040;2022-08-19T03:00:11;25.60;68.30
74359;DHT22;62792;46.236;6.040;2022-08-19T03:05:15;25.60;69.00
74359;DHT22;62792;46.236;6.040;2022-08-19T03:10:19;25.60;69.00
74359;DHT22;62792;46.236;6.040;2022-08-19T03:15:22;25.60;69.40
74359;DHT22;62792;46.236;6.040;2022-08-19T03:20:25;25.60;69.30
74359;DHT22;62792;46.236;6.040;2022-08-19T03:25:29;25.60;69.60
74359;DHT22;62792;46.236;6.040;2022-08-19T03:30:32;25.50;69.70
74359;DHT22;62792;46.236;6.040;2022-08-19T03:35:34;25.60;69.40
74359;DHT22;62792;46.236;6.040;2022-08-19T03:40:40;25.60;69.70
74359;DHT22;62792;46.236;6.040;2022-08-19T03:45:42;25.50;70.00
74359;DHT22;62792;46.236;6.040;2022-08-19T03:50:45;25.50;70.00
74359;DHT22;62792;46.236;6.040;2022-08-19T03:55:49;25.50;70.50
74359;DHT22;62792;46.236;6.040;2022-08-19T04:00:52;25.50;70.20
74359;DHT22;62792;46.236;6.040;2022-08-19T04:05:54;25.60;70.60
74359;DHT22;62792;46.236;6.040;2022-08-19T04:10:58;25.50;70.50
74359;DHT22;62792;46.236;6.040;2022-08-19T04:16:01;25.50;70.20
74359;DHT22;62792;46.236;6.040;2022-08-19T04:21:05;25.50;70.60
74359;DHT22;62792;46.236;6.040;2022-08-19T04:26:13;25.50;70.80
74359;DHT22;62792;46.236;6.040;2022-08-19T04:31:17;25.50;70.60
74359;DHT22;62792;46.236;6.040;2022-08-19T04:36:21;25.50;70.30
74359;DHT22;62792;46.236;6.040;2022-08-19T04:41:26;25.50;70.60
74359;DHT22;62792;46.236;6.040;2022-08-19T04:46:46;25.40;70.20
74359;DHT22;62792;46.236;6.040;2022-08-19T04:51:52;25.50;70.40
74359;DHT22;62792;46.236;6.040;2022-08-19T04:56:57;25.50;70.20
74359;DHT22;62792;46.236;6.040;2022-08-19T05:02:00;25.50;70.50
74359;DHT22;62792;46.236;6.040;2022-08-19T05:07:03;25.50;70.60
74359;DHT22;62792;46.236;6.040;2022-08-19T05:12:07;25.40;70.40
74359;DHT22;62792;46.236;6.040;2022-08-19T05:17:10;25.40;70.50
74359;DHT22;62792;46.236;6.040;2022-08-19T05:22:28;25.40;70.60
74359;DHT22;62792;46.236;6.040;2022-08-19T05:27:38;25.40;70.80
74359;DHT22;62792;46.236;6.040;2022-08-19T05:32:41;25.40;70.80
74359;DHT22;62792;46.236;6.040;2022-08-19T05:37:44;25.40;70.70
74359;DHT22;62792;46.236;6.040;2022-08-19T05:42:48;25.40;71.00
74359;DHT22;62792;46.236;6.040;2022-08-19T05:47:56;25.40;70.90
74359;DHT22;62792;46.236;6.040;2022-08-19T05:52:59;25.40;71.30
74359;DHT22;62792;46.236;6.040;2022-08-19T05:58:03;25.40;70.60
74359;DHT22;62792;46.236;6.040;2022-08-19T06:03:08;25.50;70.90
74359;DHT22;62792;46.236;6.040;2022-08-19T06:08:13;25.40;70.50
74359;DHT22;62792;46.236;6.040;2022-08-19T06:13:18;25.40;70.40
74359;DHT22;62792;46.236;6.040;2022-08-19T06:18:21;25.40;70.60
74359;DHT22;62792;46.236;6.040;2022-08-19T06:23:24;25.40;70.20
74359;DHT22;62792;46.236;6.040;2022-08-19T06:28:28;25.40;70.30
74359;DHT22;62792;46.236;6.040;2022-08-19T06:33:31;25.40;69.80
74359;DHT22;62792;46.236;6.040;2022-08-19T06:38:34;25.40;70.00
74359;DHT22;62792;46.236;6.040;2022-08-19T06:43:38;25.40;70.00
74359;DHT22;62792;46.236;6.040;2022-08-19T06:48:44;25.30;69.70
74359;DHT22;62792;46.236;6.040;2022-08-19T06:53:47;25.40;70.00
74359;DHT22;62792;46.236;6.040;2022-08-19T06:58:56;25.30;70.00
74359;DHT22;62792;46.236;6.040;2022-08-19T07:03:59;25.30;70.30
74359;DHT22;62792;46.236;6.040;2022-08-19T07:09:04;25.20;70.40
74359;DHT22;62792;46.236;6.040;2022-08-19T07:14:09;25.30;70.70
74359;DHT22;62792;46.236;6.040;2022-08-19T07:19:20;25.20;70.40
74359;DHT22;62792;46.236;6.040;2022-08-19T07:24:23;25.20;70.90
74359;DHT22;62792;46.236;6.040;2022-08-19T07:29:28;25.30;70.40
74359;DHT22;62792;46.236;6.040;2022-08-19T07:34:32;25.20;70.30
74359;DHT22;62792;46.236;6.040;2022-08-19T07:39:40;25.30;70.60
74359;DHT22;62792;46.236;6.040;2022-08-19T07:44:44;25.20;70.40
74359;DHT22;62792;46.236;6.040;2022-08-19T07:49:51;25.20;70.50
74359;DHT22;62792;46.236;6.040;2022-08-19T07:54:53;25.20;70.80
74359;DHT22;62792;46.236;6.040;2022-08-19T07:59:58;25.20;70.80
74359;DHT22;62792;46.236;6.040;2022-08-19T08:05:00;25.20;71.10
74359;DHT22;62792;46.236;6.040;2022-08-19T08:10:21;25.20;70.90
74359;DHT22;62792;46.236;6.040;2022-08-19T08:15:26;25.20;70.90
74359;DHT22;62792;46.236;6.040;2022-08-19T08:20:29;25.20;70.60
74359;DHT22;62792;46.236;6.040;2022-08-19T08:25:32;25.10;70.80
74359;DHT22;62792;46.236;6.040;2022-08-19T08:30:37;25.20;70.70
74359;DHT22;62792;46.236;6.040;2022-08-19T08:35:45;25.20;70.50
74359;DHT22;62792;46.236;6.040;2022-08-19T08:40:49;25.20;70.40
74359;DHT22;62792;46.236;6.040;2022-08-19T08:46:00;25.20;70.10
74359;DHT22;62792;46.236;6.040;2022-08-19T08:51:03;25.10;70.00
74359;DHT22;62792;46.236;6.040;2022-08-19T08:56:09;25.30;70.30
74359;DHT22;62792;46.236;6.040;2022-08-19T09:01:15;25.20;69.80
74359;DHT22;62792;46.236;6.040;2022-08-19T09:06:20;25.10;70.10
74359;DHT22;62792;46.236;6.040;2022-08-19T09:11:30;25.10;69.60
74359;DHT22;62792;46.236;6.040;2022-08-19T09:16:46;25.20;69.70
74359;DHT22;62792;46.236;6.040;2022-08-19T09:21:49;25.20;69.60
74359;DHT22;62792;46.236;6.040;2022-08-19T09:26:52;25.20;69.30
74359;DHT22;62792;46.236;6.040;2022-08-19T09:31:59;25.20;69.60
74359;DHT22;62792;46.236;6.040;2022-08-19T09:37:01;25.20;69.70
74359;DHT22;62792;46.236;6.040;2022-08-19T09:42:04;25.20;69.30
74359;DHT22;62792;46.236;6.040;2022-08-19T09:47:18;25.20;69.20
74359;DHT22;62792;46.236;6.040;2022-08-19T09:52:23;25.20;69.00
74359;DHT22;62792;46.236;6.040;2022-08-19T09:57:33;25.20;69.20
74359;DHT22;62792;46.236;6.040;2022-08-19T10:02:37;25.10;69.40
74359;DHT22;62792;46.236;6.040;2022-08-19T10:07:46;25.20;69.20
74359;DHT22;62792;46.236;6.040;2022-08-19T10:12:49;25.20;68.90
74359;DHT22;62792;46.236;6.040;2022-08-19T10:17:53;25.20;69.30
74359;DHT22;62792;46.236;6.040;2022-08-19T10:22:56;25.20;69.10
74359;DHT22;62792;46.236;6.040;2022-08-19T10:28:00;25.10;68.80
74359;DHT22;62792;46.236;6.040;2022-08-19T10:33:04;25.20;69.00
74359;DHT22;62792;46.236;6.040;2022-08-19T10:38:11;25.20;68.70
74359;DHT22;62792;46.236;6.040;2022-08-19T10:43:14;25.20;69.10
74359;DHT22;62792;46.236;6.040;2022-08-19T10:48:19;25.20;68.80
74359;DHT22;62792;46.236;6.040;2022-08-19T10:53:22;25.20;68.90
74359;DHT22;62792;46.236;6.040;2022-08-19T10:58:26;25.20;68.60
74359;DHT22;62792;46.236;6.040;2022-08-19T11:03:30;25.20;68.40
74359;DHT22;62792;46.236;6.040;2022-08-19T11:08:34;25.20;68.50
74359;DHT22;62792;46.236;6.040;2022-08-19T11:13:39;25.20;68.40
74359;DHT22;62792;46.236;6.040;2022-08-19T11:18:45;25.20;68.40
74359;DHT22;62792;46.236;6.040;2022-08-19T11:23:49;25.30;68.50
74359;DHT22;62792;46.236;6.040;2022-08-19T11:28:52;25.30;68.20
74359;DHT22;62792;46.236;6.040;2022-08-19T11:33:57;25.30;68.40
74359;DHT22;62792;46.236;6.040;2022-08-19T11:39:01;25.30;68.30
74359;DHT22;62792;46.236;6.040;2022-08-19T11:44:04;25.30;68.30
74359;DHT22;62792;46.236;6.040;2022-08-19T11:49:08;25.30;68.50
74359;DHT22;62792;46.236;6.040;2022-08-19T11:54:15;25.30;68.40
74359;DHT22;62792;46.236;6.040;2022-08-19T11:59:18;25.40;68.50
74359;DHT22;62792;46.236;6.040;2022-08-19T12:04:25;25.30;68.00
74359;DHT22;62792;46.236;6.040;2022-08-19T12:09:28;25.30;68.20
74359;DHT22;62792;46.236;6.040;2022-08-19T12:14:31;25.40;68.40
74359;DHT22;62792;46.236;6.040;2022-08-19T12:19:37;25.30;68.30
74359;DHT22;62792;46.236;6.040;2022-08-19T12:24:40;25.40;68.40
74359;DHT22;62792;46.236;6.040;2022-08-19T12:29:43;25.50;68.40
74359;DHT22;62792;46.236;6.040;2022-08-19T12:34:48;25.50;68.20
74359;DHT22;62792;46.236;6.040;2022-08-19T12:39:51;25.40;68.20
74359;DHT22;62792;46.236;6.040;2022-08-19T12:44:54;25.50;68.10
74359;DHT22;62792;46.236;6.040;2022-08-19T12:49:58;25.50;68.00
74359;DHT22;62792;46.236;6.040;2022-08-19T12:55:07;25.50;68.10
74359;DHT22;62792;46.236;6.040;2022-08-19T13:00:11;25.40;68.00
74359;DHT22;62792;46.236;6.040;2022-08-19T13:05:17;25.40;68.20
74359;DHT22;62792;46.236;6.040;2022-08-19T13:10:23;25.50;67.80
74359;DHT22;62792;46.236;6.040;2022-08-19T13:15:26;25.50;68.20
74359;DHT22;62792;46.236;6.040;2022-08-19T13:20:34;25.50;68.10
74359;DHT22;62792;46.236;6.040;2022-08-19T13:25:37;25.50;68.20
74359;DHT22;62792;46.236;6.040;2022-08-19T13:30:40;25.50;68.00
74359;DHT22;62792;46.236;6.040;2022-08-19T13:36:01;25.50;67.80
74359;DHT22;62792;46.236;6.040;2022-08-19T13:41:08;25.50;67.80
74359;DHT22;62792;46.236;6.040;2022-08-19T13:46:15;25.50;67.70
74359;DHT22;62792;46.236;6.040;2022-08-19T13:51:19;25.50;67.80
74359;DHT22;62792;46.236;6.040;2022-08-19T13:56:22;25.60;67.70
74359;DHT22;62792;46.236;6.040;2022-08-19T14:01:27;25.50;68.00
74359;DHT22;62792;46.236;6.040;2022-08-19T14:06:32;25.50;67.70
74359;DHT22;62792;46.236;6.040;2022-08-19T14:11:34;25.50;67.50
74359;DHT22;62792;46.236;6.040;2022-08-19T14:16:38;25.50;67.70
74359;DHT22;62792;46.236;6.040;2022-08-19T14:21:42;25.50;67.50
74359;DHT22;62792;46.236;6.040;2022-08-19T14:26:45;25.50;67.70
74359;DHT22;62792;46.236;6.040;2022-08-19T14:31:48;25.50;67.40
74359;DHT22;62792;46.236;6.040;2022-08-19T14:36:52;25.50;67.60
74359;DHT22;62792;46.236;6.040;2022-08-19T14:41:54;25.50;67.50
74359;DHT22;62792;46.236;6.040;2022-08-19T14:46:57;25.50;67.60
74359;DHT22;62792;46.236;6.040;2022-08-19T14:52:02;25.60;67.60
74359;DHT22;62792;46.236;6.040;2022-08-19T14:57:05;25.50;67.20
74359;DHT22;62792;46.236;6.040;2022-08-19T15:02:08;25.40;67.50
74359;DHT22;62792;46.236;6.040;2022-08-19T15:07:32;25.50;67.40
74359;DHT22;62792;46.236;6.040;2022-08-19T15:12:35;25.50;67.60
74359;DHT22;62792;46.236;6.040;2022-08-19T15:17:38;25.50;67.40
74359;DHT22;62792;46.236;6.040;2022-08-19T15:22:48;25.50;67.70
74359;DHT22;62792;46.236;6.040;2022-08-19T15:27:51;25.50;67.30
74359;DHT22;62792;46.236;6.040;2022-08-19T15:32:54;25.50;67.50
74359;DHT22;62792;46.236;6.040;2022-08-19T15:37:59;25.40;67.40
74359;DHT22;62792;46.236;6.040;2022-08-19T15:43:02;25.50;67.30
74359;DHT22;62792;46.236;6.040;2022-08-19T15:48:04;25.50;67.30
74359;DHT22;62792;46.236;6.040;2022-08-19T15:53:09;25.50;67.20
74359;DHT22;62792;46.236;6.040;2022-08-19T15:58:13;25.40;67.60
74359;DHT22;62792;46.236;6.040;2022-08-19T16:03:33;25.50;67.20
74359;DHT22;62792;46.236;6.040;2022-08-19T16:08:55;25.40;67.40
74359;DHT22;62792;46.236;6.040;2022-08-19T16:13:58;25.50;67.30
74359;DHT22;62792;46.236;6.040;2022-08-19T16:19:02;25.40;67.10
74359;DHT22;62792;46.236;6.040;2022-08-19T16:24:06;25.40;67.50
74359;DHT22;62792;46.236;6.040;2022-08-19T16:29:09;25.50;67.00
74359;DHT22;62792;46.236;6.040;2022-08-19T16:34:13;25.50;67.20
74359;DHT22;62792;46.236;6.040;2022-08-19T16:39:18;25.50;67.10
74359;DHT22;62792;46.236;6.040;2022-08-19T16:44:20;25.50;67.10
74359;DHT22;62792;46.236;6.040;2022-08-19T16:49:23;25.50;67.00
74359;DHT22;62792;46.236;6.040;2022-08-19T16:54:48;25.50;66.70
74359;DHT22;62792;46.236;6.040;2022-08-19T16:59:50;25.50;67.20
74359;DHT22;62792;46.236;6.040;2022-08-19T17:04:53;25.50;67.10
74359;DHT22;62792;46.236;6.040;2022-08-19T17:10:00;25.50;67.20
74359;DHT22;62792;46.236;6.040;2022-08-19T17:15:04;25.60;67.00
74359;DHT22;62792;46.236;6.040;2022-08-19T17:20:08;25.60;66.80
74359;DHT22;62792;46.236;6.040;2022-08-19T17:25:12;25.50;66.90
74359;DHT22;62792;46.236;6.040;2022-08-19T17:30:16;25.60;67.10
74359;DHT22;62792;46.236;6.040;2022-08-19T17:35:19;25.50;67.00
74359;DHT22;62792;46.236;6.040;2022-08-19T17:40:26;25.50;67.20
74359;DHT22;62792;46.236;6.040;2022-08-19T17:45:30;25.50;67.10
74359;DHT22;62792;46.236;6.040;2022-08-19T17:50:33;25.50;66.90
74359;DHT22;62792;46.236;6.040;2022-08-19T17:55:37;25.50;67.00
74359;DHT22;62792;46.236;6.040;2022-08-19T18:00:40;25.60;66.90
74359;DHT22;62792;46.236;6.040;2022-08-19T18:05:54;25.50;67.10
74359;DHT22;62792;46.236;6.040;2022-08-19T18:10:59;25.60;67.00
74359;DHT22;62792;46.236;6.040;2022-08-19T18:16:02;25.50;66.80
74359;DHT22;62792;46.236;6.040;2022-08-19T18:21:06;25.50;67.00
74359;DHT22;62792;46.236;6.040;2022-08-19T18:26:10;25.50;66.90
74359;DHT22;62792;46.236;6.040;2022-08-19T18:31:13;25.50;67.00
74359;DHT22;62792;46.236;6.040;2022-08-19T18:36:15;25.50;67.00
74359;DHT22;62792;46.236;6.040;2022-08-19T18:41:39;25.50;67.00
74359;DHT22;62792;46.236;6.040;2022-08-19T18:46:59;25.50;67.20
74359;DHT22;62792;46.236;6.040;2022-08-19T18:52:19;25.50;67.10
74359;DHT22;62792;46.236;6.040;2022-08-19T18:57:27;25.50;67.00
74359;DHT22;62792;46.236;6.040;2022-08-19T19:02:29;25.40;67.20
74359;DHT22;62792;46.236;6.040;2022-08-19T19:07:38;25.40;67.00
74359;DHT22;62792;46.236;6.040;2022-08-19T19:12:42;25.40;67.10
74359;DHT22;62792;46.236;6.040;2022-08-19T19:17:45;25.40;67.20
74359;DHT22;62792;46.236;6.040;2022-08-19T19:22:48;25.50;67.00
74359;DHT22;62792;46.236;6.040;2022-08-19T19:27:57;25.40;67.20
74359;DHT22;62792;46.236;6.040;2022-08-19T19:33:00;25.40;67.10
74359;DHT22;62792;46.236;6.040;2022-08-19T19:38:03;25.30;67.10
74359;DHT22;62792;46.236;6.040;2022-08-19T19:43:07;25.50;67.30
74359;DHT22;62792;46.236;6.040;2022-08-19T19:48:10;25.40;67.10
74359;DHT22;62792;46.236;6.040;2022-08-19T19:53:13;25.40;67.10
74359;DHT22;62792;46.236;6.040;2022-08-19T19:58:17;25.40;67.10
74359;DHT22;62792;46.236;6.040;2022-08-19T20:03:29;25.40;67.00
74359;DHT22;62792;46.236;6.040;2022-08-19T20:08:32;25.40;67.30
74359;DHT22;62792;46.236;6.040;2022-08-19T20:13:54;25.40;67.30
74359;DHT22;62792;46.236;6.040;2022-08-19T20:18:57;25.30;67.10
74359;DHT22;62792;46.236;6.040;2022-08-19T20:24:01;25.50;67.00
74359;DHT22;62792;46.236;6.040;2022-08-19T20:29:12;25.40;67.20
74359;DHT22;62792;46.236;6.040;2022-08-19T20:34:36;25.30;67.20
74359;DHT22;62792;46.236;6.040;2022-08-19T20:39:38;25.40;67.20
74359;DHT22;62792;46.236;6.040;2022-08-19T20:44:42;25.40;67.00
74359;DHT22;62792;46.236;6.040;2022-08-19T20:49:45;25.30;67.00
74359;DHT22;62792;46.236;6.040;2022-08-19T20:54:48;25.30;67.30
74359;DHT22;62792;46.236;6.040;2022-08-19T20:59:52;25.30;67.30
74359;DHT22;62792;46.236;6.040;2022-08-19T21:04:55;25.30;67.30
74359;DHT22;62792;46.236;6.040;2022-08-19T21:10:00;25.30;67.50
74359;DHT22;62792;46.236;6.040;2022-08-19T21:15:07;25.30;67.10
74359;DHT22;62792;46.236;6.040;2022-08-19T21:20:10;25.30;67.30
74359;DHT22;62792;46.236;6.040;2022-08-19T21:25:13;25.30;67.50
74359;DHT22;62792;46.236;6.040;2022-08-19T21:30:18;25.30;67.20
74359;DHT22;62792;46.236;6.040;2022-08-19T21:35:20;25.30;67.40
74359;DHT22;62792;46.236;6.040;2022-08-19T21:40:24;25.30;67.20
74359;DHT22;62792;46.236;6.040;2022-08-19T21:45:28;25.30;67.20
74359;DHT22;62792;46.236;6.040;2022-08-19T21:50:31;25.20;67.20
74359;DHT22;62792;46.236;6.040;2022-08-19T21:55:34;25.40;67.30
74359;DHT22;62792;46.236;6.040;2022-08-19T22:00:38;25.20;67.30
74359;DHT22;62792;46.236;6.040;2022-08-19T22:05:41;25.20;67.30
74359;DHT22;62792;46.236;6.040;2022-08-19T22:10:44;25.20;67.30
74359;DHT22;62792;46.236;6.040;2022-08-19T22:15:49;25.20;67.40
74359;DHT22;62792;46.236;6.040;2022-08-19T22:20:52;25.20;67.50
74359;DHT22;62792;46.236;6.040;2022-08-19T22:25:55;25.30;67.50
74359;DHT22;62792;46.236;6.040;2022-08-19T22:30:59;25.10;67.50
74359;DHT22;62792;46.236;6.040;2022-08-19T22:36:04;25.20;67.00
74359;DHT22;62792;46.236;6.040;2022-08-19T22:41:08;25.20;67.50
74359;DHT22;62792;46.236;6.040;2022-08-19T22:46:13;25.20;67.20
74359;DHT22;62792;46.236;6.040;2022-08-19T22:51:18;25.30;67.20
74359;DHT22;62792;46.236;6.040;2022-08-19T22:56:38;25.20;67.30
74359;DHT22;62792;46.236;6.040;2022-08-19T23:01:42;25.30;67.50
74359;DHT22;62792;46.236;6.040;2022-08-19T23:06:45;25.20;67.30
74359;DHT22;62792;46.236;6.040;2022-08-19T23:11:47;25.20;67.40
74359;DHT22;62792;46.236;6.040;2022-08-19T23:16:51;25.20;67.40
74359;DHT22;62792;46.236;6.040;2022-08-19T23:21:59;25.20;67.40
74359;DHT22;62792;46.236;6.040;2022-08-19T23:27:02;25.20;67.40
74359;DHT22;62792;46.236;6.040;2022-08-19T23:32:25;25.20;67.60
74359;DHT22;62792;46.236;6.040;2022-08-19T23:37:28;25.20;67.00
74359;DHT22;62792;46.236;6.040;2022-08-19T23:42:31;25.20;67.30
74359;DHT22;62792;46.236;6.040;2022-08-19T23:47:35;25.20;67.10
74359;DHT22;62792;46.236;6.040;2022-08-19T23:52:42;25.20;67.40
74359;DHT22;62792;46.236;6.040;2022-08-19T23:57:45;25.20;67.20
